createdAt,value
2023-03-05T00:01:40.723Z,54381.91
2023-03-05T00:04:16.060Z,54411.75
2023-03-05T00:06:46.067Z,54413.72
2023-03-05T00:09:15.563Z,54411.75
2023-03-05T00:11:44.095Z,54443.56
2023-03-05T00:14:13.224Z,54473.41
2023-03-05T00:16:41.999Z,54495.28
2023-03-05T00:19:11.582Z,54473.41
2023-03-05T00:21:41.361Z,54507.19
2023-03-05T00:24:13.972Z,54503.22
2023-03-05T00:26:42.682Z,54541.00
2023-03-05T00:29:15.638Z,54544.97
2023-03-05T00:31:46.849Z,54562.88
2023-03-05T00:34:17.103Z,54552.94
2023-03-05T00:36:47.308Z,54558.91
2023-03-05T00:39:17.859Z,54588.75
2023-03-05T00:41:46.430Z,54578.78
2023-03-05T00:44:14.957Z,54602.66
2023-03-05T00:46:43.299Z,54620.56
2023-03-05T00:49:11.776Z,54614.59
2023-03-05T00:51:40.211Z,54656.34
2023-03-05T00:54:08.788Z,54676.25
2023-03-05T00:56:38.619Z,54620.56
2023-03-05T00:59:07.105Z,54692.16
2023-03-05T01:01:35.529Z,54666.28
2023-03-05T01:04:05.070Z,54678.22
2023-03-05T01:06:33.482Z,54678.22
2023-03-05T01:09:01.951Z,54688.16
2023-03-05T01:11:32.140Z,54729.94
2023-03-05T01:14:02.193Z,54743.84
2023-03-05T01:16:31.080Z,54739.88
2023-03-05T01:19:02.669Z,54769.72
2023-03-05T01:21:31.560Z,54811.47
2023-03-05T01:24:00.028Z,54829.38
2023-03-05T01:26:28.641Z,54845.28
2023-03-05T01:28:57.090Z,54833.34
2023-03-05T01:31:27.472Z,54835.34
2023-03-05T01:33:56.695Z,54859.22
2023-03-05T01:36:25.476Z,54902.97
2023-03-05T01:38:54.158Z,54883.06
2023-03-05T01:41:22.851Z,54906.94
2023-03-05T01:43:52.990Z,54956.66
2023-03-05T01:46:36.628Z,54986.50
2023-03-05T01:49:23.378Z,54942.75
2023-03-05T01:52:03.877Z,55006.38
2023-03-05T01:54:35.492Z,55042.19
2023-03-05T01:57:10.570Z,55060.09
2023-03-05T01:59:41.052Z,55066.06
2023-03-05T02:02:11.059Z,55105.84
2023-03-05T02:04:45.846Z,55113.78
2023-03-05T02:07:16.359Z,55129.69
2023-03-05T02:09:44.781Z,55125.72
2023-03-05T02:12:15.120Z,55147.59
2023-03-05T02:14:48.310Z,55113.78
2023-03-05T02:17:21.017Z,55137.66
2023-03-05T02:19:52.268Z,55179.44
2023-03-05T02:22:24.941Z,55133.69
2023-03-05T02:24:53.906Z,55145.63
2023-03-05T02:27:35.201Z,55103.84
2023-03-05T02:30:04.486Z,55141.63
2023-03-05T02:32:32.790Z,55175.44
2023-03-05T02:35:01.177Z,55163.53
2023-03-05T02:37:31.294Z,55169.50
2023-03-05T02:39:59.881Z,55123.75
2023-03-05T02:42:28.562Z,55139.66
2023-03-05T02:44:57.032Z,55187.38
2023-03-05T02:47:25.347Z,55159.53
2023-03-05T02:49:54.063Z,55193.34
2023-03-05T02:52:23.336Z,55211.25
2023-03-05T02:54:54.733Z,55225.19
2023-03-05T02:57:24.895Z,55233.13
2023-03-05T02:59:54.670Z,55302.75
2023-03-05T03:02:23.866Z,55296.78
2023-03-05T03:04:52.302Z,55352.47
2023-03-05T03:07:21.133Z,55428.06
2023-03-05T03:09:50.008Z,55471.84
2023-03-05T03:12:19.819Z,55463.88
2023-03-05T03:14:48.252Z,55539.47
2023-03-05T03:17:18.912Z,55557.38
2023-03-05T03:19:48.208Z,55551.41
2023-03-05T03:22:17.886Z,55615.06
2023-03-05T03:24:46.317Z,55638.94
2023-03-05T03:27:14.737Z,55652.84
2023-03-05T03:29:44.432Z,55702.59
2023-03-05T03:32:12.831Z,55720.50
2023-03-05T03:34:41.228Z,55748.34
2023-03-05T03:37:10.134Z,55788.13
2023-03-05T03:39:38.499Z,55810.03
2023-03-05T03:42:07.351Z,55792.13
2023-03-05T03:44:35.829Z,55817.97
2023-03-05T03:47:05.850Z,55780.19
2023-03-05T03:49:34.285Z,55829.91
2023-03-05T03:52:02.826Z,55829.91
2023-03-05T03:54:31.107Z,55798.09
2023-03-05T03:56:59.651Z,55821.94
2023-03-05T03:59:27.973Z,55879.66
2023-03-05T04:01:59.403Z,55945.31
2023-03-05T04:04:30.585Z,55991.06
2023-03-05T04:06:59.141Z,56082.56
2023-03-05T04:09:29.533Z,56100.47
2023-03-05T04:11:57.965Z,56190.03
2023-03-05T04:14:30.375Z,56160.19
2023-03-05T04:16:58.910Z,56237.78
2023-03-05T04:19:30.863Z,56215.88
2023-03-05T04:21:59.761Z,56176.09
2023-03-05T04:24:28.545Z,56221.84
2023-03-05T04:26:56.962Z,56295.47
2023-03-05T04:29:25.351Z,56279.56
2023-03-05T04:31:53.870Z,56367.09
2023-03-05T04:34:22.408Z,56359.13
2023-03-05T04:36:52.234Z,56371.09
2023-03-05T04:39:21.320Z,56349.19
2023-03-05T04:41:49.994Z,56448.69
2023-03-05T04:44:19.309Z,56444.69
2023-03-05T04:46:47.742Z,56486.50
2023-03-05T04:49:16.085Z,56414.84
2023-03-05T04:51:44.461Z,56438.72
2023-03-05T04:54:14.310Z,56410.88
2023-03-05T04:56:42.740Z,56474.53
2023-03-05T04:59:11.391Z,56450.66
2023-03-05T05:01:40.189Z,56452.66
2023-03-05T05:04:08.960Z,56530.25
2023-03-05T05:06:37.286Z,56617.81
2023-03-05T05:09:05.819Z,56621.78
2023-03-05T05:11:35.664Z,56669.56
2023-03-05T05:14:04.826Z,56697.41
2023-03-05T05:16:33.573Z,56765.06
2023-03-05T05:19:01.976Z,56824.78
2023-03-05T05:21:30.418Z,56876.50
2023-03-05T05:23:58.962Z,56924.28
2023-03-05T05:26:27.854Z,56999.91
2023-03-05T05:28:57.554Z,57025.78
2023-03-05T05:31:25.801Z,57063.59
2023-03-05T05:33:54.258Z,57111.34
2023-03-05T05:36:22.865Z,57131.25
2023-03-05T05:38:51.741Z,57244.69
2023-03-05T05:41:20.819Z,57304.41
2023-03-05T05:43:49.454Z,57364.09
2023-03-05T05:46:21.229Z,57382.03
2023-03-05T05:48:49.895Z,57529.31
2023-03-05T05:51:20.990Z,57567.13
2023-03-05T05:53:50.082Z,57688.53
2023-03-05T05:56:19.126Z,57742.28
2023-03-05T05:58:49.104Z,57869.69
2023-03-05T06:01:22.072Z,58026.94
2023-03-05T06:03:50.889Z,58194.19
2023-03-05T06:06:22.194Z,58460.97
2023-03-05T06:08:50.939Z,58594.34
2023-03-05T06:11:20.424Z,58797.44
2023-03-05T06:13:49.766Z,58934.84
2023-03-05T06:16:21.661Z,59257.44
2023-03-05T06:18:50.981Z,59452.59
2023-03-05T06:21:20.972Z,59894.75
2023-03-05T06:23:50.490Z,60012.28
2023-03-05T06:26:21.753Z,60297.13
2023-03-05T06:28:50.541Z,60412.66
2023-03-05T06:31:22.481Z,60747.38
2023-03-05T06:33:51.349Z,61317.22
2023-03-05T06:36:21.578Z,61516.47
2023-03-05T06:38:52.116Z,61695.84
2023-03-05T06:41:23.264Z,61791.50
2023-03-05T06:43:51.625Z,61938.97
2023-03-05T06:46:23.578Z,62397.41
2023-03-05T06:48:52.836Z,62564.84
2023-03-05T06:51:24.827Z,62664.50
2023-03-05T06:53:56.170Z,63079.16
2023-03-05T06:56:24.652Z,63290.50
2023-03-05T06:58:53.779Z,63095.13
2023-03-05T07:01:23.956Z,63254.63
2023-03-05T07:03:53.937Z,63172.88
2023-03-05T07:06:23.514Z,63182.84
2023-03-05T07:08:51.948Z,63073.19
2023-03-05T07:11:23.971Z,62604.69
2023-03-05T07:13:52.534Z,62957.56
2023-03-05T07:16:24.946Z,62792.09
2023-03-05T07:18:53.814Z,62289.75
2023-03-05T07:21:24.716Z,62509.03
2023-03-05T07:23:54.875Z,62375.47
2023-03-05T07:26:24.308Z,62006.75
2023-03-05T07:28:53.145Z,61044.22
2023-03-05T07:31:27.546Z,60572.03
2023-03-05T07:33:56.039Z,60207.50
2023-03-05T07:36:26.895Z,59685.63
2023-03-05T07:38:55.477Z,59179.78
2023-03-05T07:41:24.518Z,58801.44
2023-03-05T07:43:54.413Z,58658.06
2023-03-05T07:46:27.790Z,57666.66
2023-03-05T07:48:57.287Z,58028.94
2023-03-05T07:51:27.310Z,57662.66
2023-03-05T07:53:58.433Z,58154.38
2023-03-05T07:56:31.762Z,58500.78
2023-03-05T07:59:00.632Z,59524.31
2023-03-05T08:01:31.154Z,60153.72
2023-03-05T08:03:59.611Z,61377.00
2023-03-05T08:06:28.049Z,63204.78
2023-03-05T08:08:56.518Z,65101.34
2023-03-05T08:11:25.000Z,66372.31
2023-03-05T08:13:56.332Z,67112.78
2023-03-05T08:16:26.114Z,70036.22
2023-03-05T08:18:57.678Z,72722.25
2023-03-05T08:21:29.564Z,74002.03
2023-03-05T08:23:58.697Z,76563.09
2023-03-05T08:26:29.051Z,78869.66
2023-03-05T08:28:57.574Z,78869.66
2023-03-05T08:31:27.871Z,80664.72
2023-03-05T08:33:59.582Z,79126.03
2023-03-05T08:36:29.276Z,79382.44
2023-03-05T08:38:59.210Z,79895.28
2023-03-05T08:41:27.729Z,81177.78
2023-03-05T08:43:56.221Z,81690.91
2023-03-05T08:46:25.056Z,84257.66
2023-03-05T08:48:53.468Z,84257.66
2023-03-05T08:51:25.850Z,84000.91
2023-03-05T08:53:55.969Z,86312.47
2023-03-05T08:56:26.365Z,86312.47
2023-03-05T08:58:54.755Z,86055.56
2023-03-05T09:01:24.163Z,89911.31
2023-03-05T09:03:52.981Z,90425.72
2023-03-05T09:06:22.945Z,89911.31
2023-03-05T09:08:51.433Z,91712.13
2023-03-05T09:11:20.703Z,88882.69
2023-03-05T09:13:49.304Z,85284.91
2023-03-05T09:16:19.855Z,88111.41
2023-03-05T09:18:48.607Z,87340.31
2023-03-05T09:21:18.650Z,89139.81
2023-03-05T09:23:48.677Z,89139.81
2023-03-05T09:26:19.479Z,90168.50
2023-03-05T09:28:48.599Z,89911.31
2023-03-05T09:31:17.272Z,90682.97
2023-03-05T09:33:45.788Z,87083.34
2023-03-05T09:36:20.849Z,87340.31
2023-03-05T09:38:50.567Z,85284.91
2023-03-05T09:41:28.099Z,85541.78
2023-03-05T09:44:08.898Z,83744.16
2023-03-05T09:46:49.515Z,80408.22
2023-03-05T09:49:22.590Z,80151.75
2023-03-05T09:51:55.850Z,70251.97
2023-03-05T09:54:35.205Z,74002.03
2023-03-05T09:57:05.604Z,65374.66
2023-03-05T09:59:41.195Z,66106.91
2023-03-05T10:02:22.161Z,64510.94
2023-03-05T10:04:54.557Z,65025.56
2023-03-05T10:07:27.540Z,65606.09
2023-03-05T10:10:00.938Z,64582.72
2023-03-05T10:12:42.478Z,62331.63
2023-03-05T10:15:14.984Z,62399.38
2023-03-05T10:18:05.984Z,64427.16
2023-03-05T10:20:59.976Z,65548.22
2023-03-05T10:23:38.050Z,62231.97
2023-03-05T10:26:21.881Z,60480.41
2023-03-05T10:29:03.818Z,60854.94
2023-03-05T10:31:51.582Z,61392.94
2023-03-05T10:34:49.583Z,67176.66
2023-03-05T10:37:43.474Z,75026.22
2023-03-05T10:40:19.777Z,76819.28
2023-03-05T10:42:59.976Z,77331.78
2023-03-05T10:45:33.383Z,79895.28
2023-03-05T10:48:06.385Z,79638.84
2023-03-05T10:50:38.219Z,79382.44
2023-03-05T10:53:18.121Z,80664.72
2023-03-05T10:55:46.543Z,82974.03
2023-03-05T10:58:17.872Z,82974.03
2023-03-05T11:01:01.422Z,84000.91
2023-03-05T11:03:48.322Z,85284.91
2023-03-05T11:06:17.177Z,86826.34
2023-03-05T11:08:45.722Z,87597.34
2023-03-05T11:11:17.816Z,88625.56
2023-03-05T11:13:57.854Z,89911.31
2023-03-05T11:16:29.460Z,90425.72
2023-03-05T11:19:20.476Z,90682.97
2023-03-05T11:22:07.543Z,90940.22
2023-03-05T11:24:35.986Z,91712.13
2023-03-05T11:27:22.541Z,91197.50
2023-03-05T11:29:52.910Z,92226.81
2023-03-05T11:32:24.627Z,92226.81
2023-03-05T11:34:53.502Z,93256.44
2023-03-05T11:37:25.872Z,90682.97
2023-03-05T11:40:21.173Z,88111.41
2023-03-05T11:42:55.875Z,86055.56
2023-03-05T11:45:27.549Z,86826.34
2023-03-05T11:47:59.641Z,82460.72
2023-03-05T11:50:31.226Z,66937.13
2023-03-05T11:53:03.811Z,62419.31
2023-03-05T11:55:37.514Z,58170.28
2023-03-05T11:58:23.815Z,56995.91
2023-03-05T12:00:54.038Z,57184.97
2023-03-05T12:03:25.872Z,57234.75
2023-03-05T12:06:00.720Z,57815.94
2023-03-05T12:08:33.539Z,59860.91
2023-03-05T12:11:08.543Z,60739.41
2023-03-05T12:13:43.316Z,60825.06
2023-03-05T12:16:25.868Z,60097.94
2023-03-05T12:19:18.414Z,58616.25
2023-03-05T12:21:51.732Z,57147.16
2023-03-05T12:24:40.716Z,58538.59
2023-03-05T12:27:17.232Z,56442.72
2023-03-05T12:29:49.212Z,57425.81
2023-03-05T12:33:00.877Z,56394.97
2023-03-05T12:35:37.457Z,56757.13
2023-03-05T12:38:31.596Z,55573.28
2023-03-05T12:41:39.709Z,55591.19
2023-03-05T12:44:19.418Z,55499.69
2023-03-05T12:47:19.381Z,55515.59
2023-03-05T12:49:49.233Z,55440.00
2023-03-05T12:52:29.395Z,55074.00
2023-03-05T12:55:16.440Z,54857.22
2023-03-05T12:57:47.162Z,55062.09
2023-03-05T13:00:21.772Z,55284.84
2023-03-05T13:02:56.154Z,55139.66
2023-03-05T13:05:28.608Z,54980.53
2023-03-05T13:08:16.044Z,54922.84
2023-03-05T13:10:51.676Z,54871.16
2023-03-05T13:13:21.671Z,54771.69
2023-03-05T13:15:51.952Z,54753.81
2023-03-05T13:18:25.163Z,54791.59
2023-03-05T13:21:04.540Z,54885.06
2023-03-05T13:23:35.954Z,54843.28
2023-03-05T13:26:13.321Z,54893.03
2023-03-05T13:28:42.662Z,54950.69
2023-03-05T13:31:16.023Z,54899.00
2023-03-05T13:33:54.249Z,54930.81
2023-03-05T13:36:24.132Z,54887.06
2023-03-05T13:38:54.755Z,54841.31
2023-03-05T13:41:25.550Z,54755.78
2023-03-05T13:43:56.046Z,54950.69
2023-03-05T13:46:26.305Z,54801.53
2023-03-05T13:48:55.036Z,54513.16
2023-03-05T13:51:23.545Z,54626.53
2023-03-05T13:53:54.257Z,54660.31
2023-03-05T13:56:22.938Z,54620.56
2023-03-05T13:58:54.275Z,54580.78
2023-03-05T14:01:31.241Z,54614.59
2023-03-05T14:04:05.543Z,54674.25
2023-03-05T14:06:38.026Z,54552.94
2023-03-05T14:09:18.759Z,54574.81
2023-03-05T14:11:54.788Z,54533.06
2023-03-05T14:14:24.931Z,54588.75
2023-03-05T14:16:53.844Z,54505.22
2023-03-05T14:19:40.508Z,54421.69
2023-03-05T14:22:32.233Z,54364.03
2023-03-05T14:25:02.146Z,54451.53
2023-03-05T14:27:35.271Z,54483.34
2023-03-05T14:30:06.569Z,54457.47
2023-03-05T14:32:37.545Z,54469.41
2023-03-05T14:35:08.049Z,54411.75
2023-03-05T14:37:38.496Z,54413.72
2023-03-05T14:40:20.893Z,54389.88
2023-03-05T14:42:54.602Z,54397.81
2023-03-05T14:45:25.953Z,54381.91
2023-03-05T14:47:57.354Z,54381.91
2023-03-05T14:50:28.786Z,54413.72
2023-03-05T14:52:59.613Z,54411.75
2023-03-05T14:55:31.866Z,54405.78
2023-03-05T14:58:05.473Z,54457.47
2023-03-05T15:00:34.100Z,54385.91
2023-03-05T15:03:03.245Z,54393.84
2023-03-05T15:05:32.064Z,54354.06
2023-03-05T15:08:00.833Z,54274.53
2023-03-05T15:10:30.851Z,54286.47
2023-03-05T15:12:59.391Z,54346.13
2023-03-05T15:15:28.310Z,54304.38
2023-03-05T15:17:57.610Z,54274.53
2023-03-05T15:20:28.495Z,54322.25
2023-03-05T15:22:57.387Z,54336.19
2023-03-05T15:25:26.914Z,54368.00
2023-03-05T15:27:56.991Z,54385.91
2023-03-05T15:30:27.853Z,54417.72
2023-03-05T15:32:57.462Z,54369.97
2023-03-05T15:35:26.326Z,54377.94
2023-03-05T15:37:55.106Z,54401.81
2023-03-05T15:40:23.762Z,54447.53
2023-03-05T15:42:52.360Z,54437.59
2023-03-05T15:45:22.719Z,54409.75
2023-03-05T15:47:52.056Z,54441.56
2023-03-05T15:50:22.040Z,54485.31
2023-03-05T15:52:51.080Z,54461.47
2023-03-05T15:55:19.821Z,54481.34
2023-03-05T15:57:49.797Z,54461.47
2023-03-05T16:00:23.823Z,54479.34
2023-03-05T16:02:54.146Z,54537.03
2023-03-05T16:05:22.958Z,54509.19
2023-03-05T16:07:53.508Z,54497.25
2023-03-05T16:10:25.763Z,54535.03
2023-03-05T16:12:58.788Z,54525.09
2023-03-05T16:15:30.423Z,54529.06
2023-03-05T16:18:02.168Z,54525.09
2023-03-05T16:20:30.945Z,54529.06
2023-03-05T16:23:00.176Z,54546.97
2023-03-05T16:25:28.648Z,54544.97
2023-03-05T16:27:57.226Z,54515.16
2023-03-05T16:30:25.804Z,54600.66
2023-03-05T16:32:55.716Z,54648.41
2023-03-05T16:35:24.731Z,54650.38
2023-03-05T16:37:54.198Z,54616.56
2023-03-05T16:40:22.911Z,54566.84
2023-03-05T16:42:51.707Z,54604.66
2023-03-05T16:45:20.302Z,54533.06
2023-03-05T16:47:48.895Z,54537.03
2023-03-05T16:50:18.673Z,54596.69
2023-03-05T16:52:47.189Z,54606.63
2023-03-05T16:55:15.972Z,54584.75
2023-03-05T16:57:45.205Z,54632.50
2023-03-05T17:00:14.794Z,54626.53
2023-03-05T17:02:43.258Z,54596.69
2023-03-05T17:05:12.824Z,54684.19
2023-03-05T17:07:42.554Z,54682.22
2023-03-05T17:10:12.300Z,54696.13
2023-03-05T17:12:41.560Z,54716.00
2023-03-05T17:15:10.792Z,54763.75
2023-03-05T17:17:40.692Z,54775.69
2023-03-05T17:20:11.113Z,54879.09
2023-03-05T17:22:39.500Z,54885.06
2023-03-05T17:25:10.196Z,54922.84
2023-03-05T17:27:38.910Z,54962.63
2023-03-05T17:30:09.380Z,55026.28
2023-03-05T17:32:38.098Z,55068.03
2023-03-05T17:35:07.200Z,55046.16
2023-03-05T17:37:35.772Z,55111.81
2023-03-05T17:40:05.400Z,55135.66
2023-03-05T17:42:35.258Z,55157.56
2023-03-05T17:45:04.621Z,55253.03
2023-03-05T17:47:33.292Z,55314.69
2023-03-05T17:50:02.703Z,55338.56
2023-03-05T17:52:31.484Z,55354.47
2023-03-05T17:55:00.377Z,55463.88
2023-03-05T17:57:28.795Z,55483.78
2023-03-05T17:59:59.285Z,55559.34
2023-03-05T18:02:28.041Z,55575.28
2023-03-05T18:04:57.636Z,55537.47
2023-03-05T18:07:26.150Z,55599.16
2023-03-05T18:09:54.696Z,55619.03
2023-03-05T18:12:23.400Z,55642.91
2023-03-05T18:14:51.882Z,55748.34
2023-03-05T18:17:22.826Z,55702.59
2023-03-05T18:19:51.354Z,55786.16
2023-03-05T18:22:19.771Z,55863.72
2023-03-05T18:24:48.188Z,55929.38
2023-03-05T18:27:16.665Z,55989.06
2023-03-05T18:29:45.138Z,55981.13
2023-03-05T18:32:13.641Z,55941.31
2023-03-05T18:34:43.505Z,55993.06
2023-03-05T18:37:12.332Z,56052.72
2023-03-05T18:39:40.747Z,56074.63
2023-03-05T18:42:13.614Z,56116.41
2023-03-05T18:44:42.657Z,56138.28
2023-03-05T18:47:11.101Z,56239.75
2023-03-05T18:49:39.445Z,56321.34
2023-03-05T18:52:09.242Z,56464.59
2023-03-05T18:54:37.702Z,56623.78
2023-03-05T18:57:06.100Z,56788.94
2023-03-05T18:59:34.661Z,56880.50
2023-03-05T19:02:03.226Z,57039.69
2023-03-05T19:04:31.653Z,57183.00
2023-03-05T19:07:00.024Z,57431.78
2023-03-05T19:09:47.966Z,57664.66
2023-03-05T19:12:16.440Z,58212.09
2023-03-05T19:14:44.927Z,58552.53
2023-03-05T19:17:13.824Z,59245.50
2023-03-05T19:19:43.931Z,59938.56
2023-03-05T19:22:14.062Z,59211.63
2023-03-05T19:24:44.499Z,58261.88
2023-03-05T19:27:13.735Z,58462.94
2023-03-05T19:29:43.957Z,58022.97
2023-03-05T19:32:15.923Z,58046.84
2023-03-05T19:34:45.081Z,58222.06
2023-03-05T19:37:13.942Z,58076.72
2023-03-05T19:39:44.374Z,57865.72
2023-03-05T19:42:13.382Z,58198.16
2023-03-05T19:44:42.279Z,58353.44
2023-03-05T19:47:11.109Z,58560.50
2023-03-05T19:49:39.590Z,59014.50
2023-03-05T19:52:08.681Z,59542.22
2023-03-05T19:54:37.287Z,59707.53
2023-03-05T19:57:07.151Z,59737.41
2023-03-05T19:59:35.694Z,59735.41
2023-03-05T20:02:04.419Z,59819.06
2023-03-05T20:04:33.336Z,59781.22
2023-03-05T20:07:01.935Z,59852.94
2023-03-05T20:09:30.545Z,59962.47
2023-03-05T20:12:02.734Z,60265.25
2023-03-05T20:14:32.855Z,60787.22
2023-03-05T20:17:01.396Z,61414.84
2023-03-05T20:19:30.031Z,62038.63
2023-03-05T20:21:58.476Z,63689.28
2023-03-05T20:24:26.803Z,65494.38
2023-03-05T20:26:55.507Z,66865.28
2023-03-05T20:29:24.001Z,68570.19
2023-03-05T20:31:56.494Z,69740.56
2023-03-05T20:34:27.089Z,71698.75
2023-03-05T20:36:55.687Z,72210.47
2023-03-05T20:39:24.250Z,73490.06
2023-03-05T20:41:55.301Z,73746.06
2023-03-05T20:44:24.093Z,74258.06
2023-03-05T20:47:02.731Z,75026.22
2023-03-05T20:49:34.256Z,75538.44
2023-03-05T20:52:02.712Z,76306.91
2023-03-05T20:54:31.360Z,77331.78
2023-03-05T20:56:59.802Z,77075.53
2023-03-05T20:59:28.234Z,77588.03
2023-03-05T21:01:58.160Z,78100.63
2023-03-05T21:04:27.100Z,79382.44
2023-03-05T21:06:55.689Z,79638.84
2023-03-05T21:09:24.210Z,79382.44
2023-03-05T21:11:52.739Z,79895.28
2023-03-05T21:14:21.167Z,80151.75
2023-03-05T21:16:49.845Z,80151.75
2023-03-05T21:19:19.640Z,80664.72
2023-03-05T21:21:48.184Z,82460.72
2023-03-05T21:24:17.964Z,82717.38
2023-03-05T21:26:46.522Z,83230.72
2023-03-05T21:29:15.149Z,84000.91
2023-03-05T21:31:43.603Z,85028.06
2023-03-05T21:34:12.303Z,85798.66
2023-03-05T21:36:42.867Z,85541.78
2023-03-05T21:39:11.461Z,86569.41
2023-03-05T21:41:40.098Z,86569.41
2023-03-05T21:44:10.607Z,87597.34
2023-03-05T21:46:42.876Z,87854.38
2023-03-05T21:49:11.360Z,88625.56
2023-03-05T21:51:51.130Z,89139.81
2023-03-05T21:54:25.355Z,89396.97
2023-03-05T21:56:54.949Z,89396.97
2023-03-05T21:59:23.354Z,90168.50
2023-03-05T22:01:52.630Z,90425.72
2023-03-05T22:04:21.488Z,90168.50
2023-03-05T22:06:52.217Z,90425.72
2023-03-05T22:09:20.851Z,90682.97
2023-03-05T22:11:49.556Z,90940.22
2023-03-05T22:14:18.203Z,91454.81
2023-03-05T22:16:46.892Z,91969.47
2023-03-05T22:19:15.491Z,92226.81
2023-03-05T22:21:43.942Z,92999.00
2023-03-05T22:24:13.789Z,92741.59
2023-03-05T22:26:43.584Z,92999.00
2023-03-05T22:29:13.120Z,93256.44
2023-03-05T22:31:41.761Z,92741.59
2023-03-05T22:34:10.259Z,92999.00
2023-03-05T22:36:38.670Z,93256.44
2023-03-05T22:39:07.013Z,93256.44
2023-03-05T22:41:36.815Z,92999.00
2023-03-05T22:44:05.302Z,92999.00
2023-03-05T22:46:33.632Z,92999.00
2023-03-05T22:49:02.120Z,93256.44
2023-03-05T22:51:31.246Z,93256.44
2023-03-05T22:53:59.805Z,92999.00
2023-03-05T22:56:28.330Z,92999.00
2023-03-05T22:58:58.660Z,93256.44
2023-03-05T23:01:27.771Z,93256.44
2023-03-05T23:04:03.884Z,93256.44
2023-03-05T23:06:34.075Z,93256.44
2023-03-05T23:09:05.032Z,93513.91
2023-03-05T23:11:33.403Z,93513.91
2023-03-05T23:14:03.267Z,93771.38
2023-03-05T23:16:31.771Z,94028.84
2023-03-05T23:19:00.143Z,94286.38
2023-03-05T23:21:28.601Z,94286.38
2023-03-05T23:23:57.809Z,94543.91
2023-03-05T23:26:26.205Z,94543.91
2023-03-05T23:28:54.539Z,94801.44
2023-03-05T23:31:24.342Z,95059.00
2023-03-05T23:33:52.820Z,95059.00
2023-03-05T23:36:25.520Z,95316.59
2023-03-05T23:38:57.603Z,95831.81
2023-03-05T23:41:25.972Z,95831.81
2023-03-05T23:43:54.287Z,96089.47
2023-03-05T23:46:24.112Z,96347.13
2023-03-05T23:48:52.425Z,96347.13
2023-03-05T23:51:20.816Z,96347.13
2023-03-05T23:53:49.572Z,96604.81
2023-03-05T23:56:18.140Z,96862.50
2023-03-05T23:58:46.436Z,96862.50
